McKinley Park, Alaska
Current Conditions -  °F | °C
As of 9:16 PM on Wednesday 22 Oct 2014 (Local Time) from PAIN Reporting Station
Overcast Overcast  
Wind Chill: -10°   Ceiling: 2000
Heat Index: -5°   Visibility: 6mi
Dew Point: -5°   Wind: 8mph
Humidity: 100%   Direction: 10°N
Pressure: 29.62"   Gusts: 16mph
Location:  63.73°N, 148.91°W
Report Text: PAIN 230516Z AUTO 01007G14KT 6SM SCT008 OVC020 M05/M05 A2962 RMK AO1
Loading
Personal Weather Stations






























Interactive Weather Map
Tropical Storm Tracking
New forecast layout! Learn more

10-Day Weather Forecast

Advertisements
Track Severe Weather on mobile